TBV9138 SBBR-SCEL
Flight info
| Callsign | TBV9138 |
|---|---|
| Flight time | N/A |
| Altitude | 36000 |
| Route | SIREM UM403 VAS UM529 ARPAS UZ124 SIS UL531 CBA UZ105 UMKAL UMKAL7C |
| Aircraft | A339/H-SADE1E2E3GHIJ3J5M1P2RWXY/LB2D1 |
Departure
| Time | 2026-04-30 18:03 |
|---|---|
| Airport | Presidente Juscelino Kubitschek International Airport (SBBR) |
Arrival
| Time | N/A |
|---|---|
| Airport | Comodoro Arturo Merino Benítez International Airport (SCEL) |
| Time | Latitude | Longitude | Altitude | Speed | Heading |
|---|---|---|---|---|---|
| 2026-04-30 17:43 | -15.86721 | -47.91973 | 3476 ft | 0 kts | 181° |
| 2026-04-30 17:51 | -15.86703 | -47.91973 | 3471 ft | 3 kts | 181° |
| 2026-04-30 17:52 | -15.86649 | -47.91970 | 3471 ft | 3 kts | 162° |
| 2026-04-30 17:53 | -15.86625 | -47.92013 | 3471 ft | 0 kts | 87° |
| 2026-04-30 17:56 | -15.86623 | -47.91963 | 3455 ft | 7 kts | 87° |
| 2026-04-30 17:57 | -15.86610 | -47.91836 | 3473 ft | 7 kts | 72° |
| 2026-04-30 17:58 | -15.86509 | -47.91825 | 3471 ft | 7 kts | 332° |
| 2026-04-30 17:59 | -15.86513 | -47.92142 | 3470 ft | 17 kts | 266° |
| 2026-04-30 18:00 | -15.86545 | -47.92746 | 3465 ft | 14 kts | 283° |
| 2026-04-30 18:00 | -15.86448 | -47.92771 | 3465 ft | 0 kts | 358° |
| 2026-04-30 18:02 | -15.86362 | -47.92701 | 3463 ft | 8 kts | 63° |
| 2026-04-30 18:02 | -15.86283 | -47.91426 | 3475 ft | 154 kts | 86° |
| 2026-04-30 18:03 | -15.85944 | -47.87679 | 5421 ft | 176 kts | 86° |
| 2026-04-30 18:04 | -15.85706 | -47.83201 | 6558 ft | 249 kts | 86° |
| 2026-04-30 18:05 | -15.89103 | -47.77204 | 6993 ft | 281 kts | 167° |
| 2026-04-30 18:06 | -15.96424 | -47.80383 | 9039 ft | 297 kts | 208° |
| 2026-04-30 18:07 | -16.03132 | -47.85903 | 10542 ft | 338 kts | 227° |
| 2026-04-30 18:08 | -16.06787 | -47.92559 | 11519 ft | 364 kts | 250° |
| 2026-04-30 18:09 | -16.09051 | -48.02907 | 13415 ft | 372 kts | 238° |
| 2026-04-30 18:10 | -16.15000 | -48.11899 | 15049 ft | 384 kts | 239° |
| 2026-04-30 18:11 | -16.20210 | -48.21743 | 16672 ft | 394 kts | 241° |
| 2026-04-30 18:11 | -16.24297 | -48.29270 | 17809 ft | 402 kts | 235° |
| 2026-04-30 18:12 | -16.29913 | -48.35853 | 18918 ft | 408 kts | 227° |
| 2026-04-30 18:13 | -16.33764 | -48.40252 | 19624 ft | 412 kts | 228° |
| 2026-04-30 18:13 | -16.38940 | -48.46182 | 20592 ft | 418 kts | 228° |
| 2026-04-30 18:14 | -16.43510 | -48.51422 | 21463 ft | 422 kts | 228° |
| 2026-04-30 18:15 | -16.49482 | -48.58271 | 22576 ft | 429 kts | 228° |
| 2026-04-30 18:15 | -16.55557 | -48.65243 | 23696 ft | 436 kts | 228° |
| 2026-04-30 18:16 | -16.59920 | -48.69665 | 24374 ft | 439 kts | 223° |
| 2026-04-30 18:16 | -16.64492 | -48.73890 | 25034 ft | 443 kts | 222° |
| 2026-04-30 18:17 | -16.66811 | -48.76023 | 25379 ft | 445 kts | 222° |
| 2026-04-30 18:17 | -16.69131 | -48.78165 | 25716 ft | 446 kts | 222° |
| 2026-04-30 18:17 | -16.73781 | -48.82480 | 26399 ft | 449 kts | 222° |
| 2026-04-30 18:18 | -16.76117 | -48.84651 | 26725 ft | 450 kts | 222° |
| 2026-04-30 18:18 | -16.78465 | -48.86833 | 27056 ft | 452 kts | 222° |
| 2026-04-30 18:18 | -16.80811 | -48.89014 | 27404 ft | 453 kts | 222° |
| 2026-04-30 18:18 | -16.83170 | -48.91208 | 27741 ft | 455 kts | 222° |
| 2026-04-30 18:19 | -16.85534 | -48.93407 | 28073 ft | 456 kts | 222° |
| 2026-04-30 18:19 | -16.87905 | -48.95615 | 28403 ft | 457 kts | 222° |
| 2026-04-30 18:19 | -16.90285 | -48.97831 | 28707 ft | 459 kts | 222° |
| 2026-04-30 18:19 | -16.92674 | -49.00056 | 29033 ft | 461 kts | 222° |
| 2026-04-30 18:20 | -16.95072 | -49.02291 | 29339 ft | 462 kts | 222° |
| 2026-04-30 18:20 | -16.97447 | -49.04505 | 29644 ft | 464 kts | 222° |
| 2026-04-30 18:20 | -16.99862 | -49.06757 | 29958 ft | 466 kts | 222° |
| 2026-04-30 18:20 | -17.02283 | -49.09017 | 30223 ft | 467 kts | 222° |
| 2026-04-30 18:21 | -17.04711 | -49.11283 | 30512 ft | 469 kts | 222° |
| 2026-04-30 18:21 | -17.07150 | -49.13560 | 30784 ft | 471 kts | 222° |
| 2026-04-30 18:21 | -17.09607 | -49.15856 | 31061 ft | 473 kts | 222° |
| 2026-04-30 18:21 | -17.12066 | -49.18153 | 31349 ft | 475 kts | 222° |
| 2026-04-30 18:22 | -17.14538 | -49.20463 | 31626 ft | 477 kts | 222° |
| 2026-04-30 18:22 | -17.19495 | -49.25098 | 32175 ft | 480 kts | 222° |
| 2026-04-30 18:22 | -17.21961 | -49.27405 | 32415 ft | 482 kts | 222° |
| 2026-04-30 18:23 | -17.24465 | -49.29748 | 32642 ft | 483 kts | 222° |
| 2026-04-30 18:23 | -17.26981 | -49.32104 | 32831 ft | 485 kts | 222° |
| 2026-04-30 18:23 | -17.29496 | -49.34459 | 33033 ft | 486 kts | 222° |
| 2026-04-30 18:23 | -17.32019 | -49.36823 | 33197 ft | 487 kts | 222° |
| 2026-04-30 18:24 | -17.37075 | -49.41563 | 33493 ft | 489 kts | 222° |
| 2026-04-30 18:24 | -17.39616 | -49.43946 | 33677 ft | 488 kts | 222° |
| 2026-04-30 18:24 | -17.42144 | -49.46317 | 33871 ft | 488 kts | 223° |
| 2026-04-30 18:25 | -17.44639 | -49.48659 | 34043 ft | 487 kts | 223° |
| 2026-04-30 18:25 | -17.49686 | -49.53400 | 34409 ft | 485 kts | 223° |
| 2026-04-30 18:25 | -17.52195 | -49.55757 | 34585 ft | 484 kts | 223° |
| 2026-04-30 18:26 | -17.57206 | -49.60471 | 34942 ft | 482 kts | 223° |
| 2026-04-30 18:26 | -17.59668 | -49.62786 | 35129 ft | 481 kts | 223° |
| 2026-04-30 18:26 | -17.62160 | -49.65133 | 35291 ft | 481 kts | 223° |
| 2026-04-30 18:27 | -17.67132 | -49.69817 | 35662 ft | 479 kts | 223° |
| 2026-04-30 18:27 | -17.69613 | -49.72156 | 35841 ft | 479 kts | 223° |
| 2026-04-30 18:28 | -17.74563 | -49.76823 | 35937 ft | 477 kts | 223° |
| 2026-04-30 18:28 | -17.81964 | -49.83808 | 35933 ft | 477 kts | 223° |
| 2026-04-30 18:29 | -17.91807 | -49.93111 | 35932 ft | 477 kts | 223° |
| 2026-04-30 18:30 | -18.01665 | -50.02441 | 35931 ft | 477 kts | 223° |
| 2026-04-30 18:31 | -18.09060 | -50.09451 | 35930 ft | 477 kts | 223° |
| 2026-04-30 18:32 | -18.16450 | -50.16465 | 35934 ft | 477 kts | 223° |
| 2026-04-30 18:33 | -18.23838 | -50.23484 | 35938 ft | 477 kts | 223° |
| 2026-04-30 18:33 | -18.31197 | -50.30485 | 35939 ft | 477 kts | 223° |
| 2026-04-30 18:34 | -18.38584 | -50.37520 | 35940 ft | 477 kts | 223° |
| 2026-04-30 18:35 | -18.43510 | -50.42217 | 35945 ft | 477 kts | 223° |
| 2026-04-30 18:35 | -18.48430 | -50.46911 | 35944 ft | 477 kts | 224° |
| 2026-04-30 18:36 | -18.55783 | -50.53933 | 35944 ft | 477 kts | 224° |
| 2026-04-30 18:37 | -18.63162 | -50.60989 | 35948 ft | 477 kts | 224° |
| 2026-04-30 18:37 | -18.68080 | -50.65697 | 35945 ft | 477 kts | 224° |
| 2026-04-30 18:38 | -18.72963 | -50.70375 | 35945 ft | 477 kts | 224° |
| 2026-04-30 18:38 | -18.77871 | -50.75081 | 35946 ft | 477 kts | 224° |
| 2026-04-30 18:39 | -18.82781 | -50.79792 | 35941 ft | 477 kts | 224° |
| 2026-04-30 18:39 | -18.87694 | -50.84511 | 35939 ft | 477 kts | 224° |
| 2026-04-30 18:40 | -18.92601 | -50.89227 | 35940 ft | 477 kts | 224° |
| 2026-04-30 18:40 | -18.97513 | -50.93952 | 35941 ft | 477 kts | 224° |
| 2026-04-30 18:41 | -19.02381 | -50.98640 | 35937 ft | 476 kts | 224° |
| 2026-04-30 18:41 | -19.07287 | -51.03366 | 35935 ft | 476 kts | 224° |
| 2026-04-30 18:42 | -19.12188 | -51.08093 | 35937 ft | 476 kts | 224° |
| 2026-04-30 18:42 | -19.19526 | -51.15178 | 35936 ft | 476 kts | 224° |
| 2026-04-30 18:45 | -19.46409 | -51.41206 | 35946 ft | 475 kts | 225° |
| 2026-04-30 18:46 | -19.51250 | -51.45906 | 35940 ft | 475 kts | 225° |
| 2026-04-30 18:46 | -19.56126 | -51.50645 | 35946 ft | 475 kts | 225° |
| 2026-04-30 18:47 | -19.61004 | -51.55389 | 35948 ft | 475 kts | 225° |
| 2026-04-30 18:47 | -19.65872 | -51.60127 | 35946 ft | 475 kts | 225° |
| 2026-04-30 18:48 | -19.70736 | -51.64865 | 35942 ft | 475 kts | 225° |
| 2026-04-30 18:48 | -19.75594 | -51.69603 | 35947 ft | 475 kts | 225° |
| 2026-04-30 18:49 | -19.79636 | -51.73547 | 35947 ft | 474 kts | 225° |
| 2026-04-30 18:49 | -19.84503 | -51.78299 | 35937 ft | 474 kts | 225° |
| 2026-04-30 18:50 | -19.89326 | -51.83014 | 35940 ft | 474 kts | 225° |
| 2026-04-30 18:50 | -19.94182 | -51.87765 | 35941 ft | 474 kts | 225° |
| 2026-04-30 18:51 | -19.99028 | -51.92511 | 35942 ft | 474 kts | 225° |
| 2026-04-30 18:51 | -20.03875 | -51.97261 | 35948 ft | 473 kts | 225° |
| 2026-04-30 18:52 | -20.08723 | -52.02017 | 35939 ft | 473 kts | 225° |
| 2026-04-30 18:52 | -20.13531 | -52.06736 | 35944 ft | 473 kts | 226° |
| 2026-04-30 18:53 | -20.18364 | -52.11486 | 35944 ft | 473 kts | 226° |
| 2026-04-30 18:53 | -20.23196 | -52.16238 | 35946 ft | 473 kts | 226° |
| 2026-04-30 18:54 | -20.28033 | -52.21000 | 35943 ft | 472 kts | 226° |
| 2026-04-30 18:54 | -20.32860 | -52.25755 | 35947 ft | 472 kts | 226° |
| 2026-04-30 18:55 | -20.37679 | -52.30508 | 35950 ft | 472 kts | 226° |
| 2026-04-30 18:55 | -20.44903 | -52.37639 | 35953 ft | 472 kts | 226° |
| 2026-04-30 18:56 | -20.52088 | -52.44741 | 35957 ft | 471 kts | 226° |
| 2026-04-30 18:57 | -20.59295 | -52.51876 | 35959 ft | 471 kts | 226° |
| 2026-04-30 18:57 | -20.64097 | -52.56635 | 35963 ft | 470 kts | 226° |
| 2026-04-30 18:58 | -20.71295 | -52.63775 | 35964 ft | 470 kts | 226° |
| 2026-04-30 18:59 | -20.78443 | -52.70877 | 35964 ft | 469 kts | 226° |
| 2026-04-30 19:00 | -20.88004 | -52.80391 | 35963 ft | 469 kts | 226° |
| 2026-04-30 19:01 | -20.97554 | -52.89909 | 35968 ft | 469 kts | 227° |
| 2026-04-30 19:02 | -21.04704 | -52.97048 | 35972 ft | 469 kts | 227° |
| 2026-04-30 19:03 | -21.14197 | -53.06542 | 35967 ft | 468 kts | 227° |
| 2026-04-30 19:04 | -21.23703 | -53.16064 | 35972 ft | 467 kts | 227° |
| 2026-04-30 19:05 | -21.33194 | -53.25592 | 35976 ft | 467 kts | 227° |
| 2026-04-30 19:06 | -21.42657 | -53.35108 | 35963 ft | 466 kts | 227° |
| 2026-04-30 19:06 | -21.49564 | -53.42357 | 35968 ft | 460 kts | 236° |
| 2026-04-30 19:07 | -21.54449 | -53.51113 | 35969 ft | 456 kts | 242° |
| 2026-04-30 19:08 | -21.61469 | -53.62510 | 35965 ft | 458 kts | 239° |
| 2026-04-30 19:09 | -21.67643 | -53.70352 | 35969 ft | 465 kts | 227° |
| 2026-04-30 19:09 | -21.72337 | -53.75132 | 35965 ft | 464 kts | 228° |
| 2026-04-30 19:10 | -21.81668 | -53.84734 | 35967 ft | 464 kts | 228° |
| 2026-04-30 19:11 | -21.88671 | -53.91945 | 35968 ft | 464 kts | 228° |
| 2026-04-30 19:12 | -21.93336 | -53.96753 | 35967 ft | 464 kts | 228° |
| 2026-04-30 19:12 | -21.97973 | -54.01537 | 35967 ft | 464 kts | 228° |
| 2026-04-30 19:13 | -22.07290 | -54.11164 | 35963 ft | 464 kts | 229° |
| 2026-04-30 19:14 | -22.11950 | -54.15986 | 35965 ft | 464 kts | 229° |
| 2026-04-30 19:14 | -22.16584 | -54.20784 | 35965 ft | 464 kts | 229° |
| 2026-04-30 19:15 | -22.21239 | -54.25610 | 35965 ft | 464 kts | 229° |
| 2026-04-30 19:15 | -22.28220 | -54.32857 | 35960 ft | 464 kts | 229° |
| 2026-04-30 19:16 | -22.32878 | -54.37698 | 35964 ft | 464 kts | 229° |
| 2026-04-30 19:17 | -22.39828 | -54.44929 | 35966 ft | 464 kts | 229° |
| 2026-04-30 19:17 | -22.46818 | -54.52213 | 35967 ft | 465 kts | 229° |
| 2026-04-30 19:18 | -22.53805 | -54.59505 | 35964 ft | 465 kts | 229° |
| 2026-04-30 19:19 | -22.58456 | -54.64374 | 35966 ft | 465 kts | 229° |
| 2026-04-30 19:19 | -22.65400 | -54.71676 | 35963 ft | 465 kts | 229° |
| 2026-04-30 19:20 | -22.70041 | -54.76561 | 35972 ft | 465 kts | 230° |
| 2026-04-30 19:21 | -22.76991 | -54.83882 | 35967 ft | 464 kts | 230° |
| 2026-04-30 19:22 | -22.86216 | -54.93618 | 35966 ft | 463 kts | 230° |
| 2026-04-30 19:23 | -23.00026 | -55.08229 | 35960 ft | 461 kts | 230° |
| 2026-04-30 19:24 | -23.06897 | -55.15515 | 35963 ft | 459 kts | 230° |
| 2026-04-30 19:25 | -23.18265 | -55.27594 | 35956 ft | 457 kts | 231° |
| 2026-04-30 19:26 | -23.27352 | -55.37272 | 35956 ft | 456 kts | 231° |
| 2026-04-30 19:27 | -23.34154 | -55.44529 | 35934 ft | 456 kts | 231° |
| 2026-04-30 19:28 | -23.40949 | -55.51790 | 35942 ft | 456 kts | 231° |
| 2026-04-30 19:29 | -23.50001 | -55.61477 | 35942 ft | 456 kts | 231° |
| 2026-04-30 19:30 | -23.59022 | -55.71147 | 35941 ft | 456 kts | 231° |
| 2026-04-30 19:31 | -23.68064 | -55.80863 | 35940 ft | 456 kts | 231° |
| 2026-04-30 19:31 | -23.74844 | -55.88155 | 35939 ft | 455 kts | 231° |
| 2026-04-30 19:32 | -23.79327 | -55.92983 | 35941 ft | 455 kts | 231° |
| 2026-04-30 19:32 | -23.83834 | -55.97841 | 35938 ft | 455 kts | 231° |
| 2026-04-30 19:33 | -23.88337 | -56.02701 | 35937 ft | 454 kts | 231° |
| 2026-04-30 19:33 | -23.92838 | -56.07564 | 35939 ft | 454 kts | 232° |
| 2026-04-30 19:34 | -23.97297 | -56.12386 | 35941 ft | 454 kts | 232° |
| 2026-04-30 19:35 | -24.04024 | -56.19670 | 35940 ft | 453 kts | 232° |
| 2026-04-30 19:35 | -24.08512 | -56.24537 | 35934 ft | 453 kts | 232° |
| 2026-04-30 19:36 | -24.12986 | -56.29393 | 35934 ft | 453 kts | 232° |
| 2026-04-30 19:36 | -24.19694 | -56.36684 | 35933 ft | 453 kts | 232° |
| 2026-04-30 19:37 | -24.24138 | -56.41520 | 35936 ft | 453 kts | 232° |
| 2026-04-30 19:37 | -24.28603 | -56.46386 | 35941 ft | 452 kts | 232° |
| 2026-04-30 19:38 | -24.33069 | -56.51255 | 35938 ft | 452 kts | 232° |
| 2026-04-30 19:38 | -24.37529 | -56.56125 | 35935 ft | 452 kts | 232° |
| 2026-04-30 19:39 | -24.41995 | -56.61006 | 35937 ft | 452 kts | 232° |
| 2026-04-30 19:39 | -24.46421 | -56.65847 | 35934 ft | 452 kts | 232° |
| 2026-04-30 19:40 | -24.50119 | -56.69895 | 35936 ft | 451 kts | 232° |
| 2026-04-30 19:40 | -24.54558 | -56.74762 | 35934 ft | 451 kts | 232° |
| 2026-04-30 19:41 | -24.58998 | -56.79635 | 35931 ft | 451 kts | 232° |
| 2026-04-30 19:41 | -24.63430 | -56.84502 | 35930 ft | 450 kts | 232° |
| 2026-04-30 19:42 | -24.67865 | -56.89381 | 35930 ft | 450 kts | 232° |
| 2026-04-30 19:42 | -24.72280 | -56.94255 | 35930 ft | 449 kts | 232° |
| 2026-04-30 19:43 | -24.76695 | -56.99134 | 35927 ft | 449 kts | 232° |
| 2026-04-30 19:44 | -24.83279 | -57.06416 | 35926 ft | 449 kts | 232° |